sensor_id;sensor_type;location;lat;lon;timestamp;temperature;humidity
6270;DHT22;3168;51.684;6.954;2022-07-11T00:02:06;17.10;91.70
6270;DHT22;3168;51.684;6.954;2022-07-11T00:04:32;17.10;92.80
6270;DHT22;3168;51.684;6.954;2022-07-11T00:06:58;17.10;92.90
6270;DHT22;3168;51.684;6.954;2022-07-11T00:09:24;17.10;93.70
6270;DHT22;3168;51.684;6.954;2022-07-11T00:11:50;17.10;93.70
6270;DHT22;3168;51.684;6.954;2022-07-11T00:14:16;17.10;94.00
6270;DHT22;3168;51.684;6.954;2022-07-11T00:16:42;17.00;93.90
6270;DHT22;3168;51.684;6.954;2022-07-11T00:19:08;17.00;94.10
6270;DHT22;3168;51.684;6.954;2022-07-11T00:21:34;17.00;94.00
6270;DHT22;3168;51.684;6.954;2022-07-11T00:24:00;16.90;94.40
6270;DHT22;3168;51.684;6.954;2022-07-11T00:26:26;16.90;95.20
6270;DHT22;3168;51.684;6.954;2022-07-11T00:28:52;16.90;95.60
6270;DHT22;3168;51.684;6.954;2022-07-11T00:31:18;16.80;95.90
6270;DHT22;3168;51.684;6.954;2022-07-11T00:33:43;16.70;96.50
6270;DHT22;3168;51.684;6.954;2022-07-11T00:36:09;16.70;97.30
6270;DHT22;3168;51.684;6.954;2022-07-11T00:38:35;16.60;97.80
6270;DHT22;3168;51.684;6.954;2022-07-11T00:41:01;16.60;98.50
6270;DHT22;3168;51.684;6.954;2022-07-11T00:43:31;16.50;99.10
6270;DHT22;3168;51.684;6.954;2022-07-11T00:45:56;16.50;99.10
6270;DHT22;3168;51.684;6.954;2022-07-11T00:48:21;16.60;99.40
6270;DHT22;3168;51.684;6.954;2022-07-11T00:50:47;16.40;99.50
6270;DHT22;3168;51.684;6.954;2022-07-11T00:53:13;16.60;99.70
6270;DHT22;3168;51.684;6.954;2022-07-11T00:55:40;16.60;99.10
6270;DHT22;3168;51.684;6.954;2022-07-11T00:58:05;16.60;99.20
6270;DHT22;3168;51.684;6.954;2022-07-11T01:00:31;16.60;99.60
6270;DHT22;3168;51.684;6.954;2022-07-11T01:02:57;16.60;99.90
6270;DHT22;3168;51.684;6.954;2022-07-11T01:05:22;16.60;99.40
6270;DHT22;3168;51.684;6.954;2022-07-11T01:07:48;16.60;99.90
6270;DHT22;3168;51.684;6.954;2022-07-11T01:10:14;16.60;99.90
6270;DHT22;3168;51.684;6.954;2022-07-11T01:12:41;16.60;99.70
6270;DHT22;3168;51.684;6.954;2022-07-11T01:15:07;16.60;99.70
6270;DHT22;3168;51.684;6.954;2022-07-11T01:17:33;16.60;99.90
6270;DHT22;3168;51.684;6.954;2022-07-11T01:19:59;16.60;99.20
6270;DHT22;3168;51.684;6.954;2022-07-11T01:22:25;16.70;99.80
6270;DHT22;3168;51.684;6.954;2022-07-11T01:24:51;16.70;99.80
6270;DHT22;3168;51.684;6.954;2022-07-11T01:27:18;16.80;98.10
6270;DHT22;3168;51.684;6.954;2022-07-11T01:29:44;16.80;98.10
6270;DHT22;3168;51.684;6.954;2022-07-11T01:32:10;16.80;98.30
6270;DHT22;3168;51.684;6.954;2022-07-11T01:34:35;16.80;98.70
6270;DHT22;3168;51.684;6.954;2022-07-11T01:37:01;16.80;98.60
6270;DHT22;3168;51.684;6.954;2022-07-11T01:39:27;16.70;99.20
6270;DHT22;3168;51.684;6.954;2022-07-11T01:41:53;16.80;99.20
6270;DHT22;3168;51.684;6.954;2022-07-11T01:44:19;16.70;99.20
6270;DHT22;3168;51.684;6.954;2022-07-11T01:46:45;16.80;99.20
6270;DHT22;3168;51.684;6.954;2022-07-11T01:49:11;16.80;99.60
6270;DHT22;3168;51.684;6.954;2022-07-11T01:51:36;16.80;99.30
6270;DHT22;3168;51.684;6.954;2022-07-11T01:54:02;16.70;99.60
6270;DHT22;3168;51.684;6.954;2022-07-11T01:56:28;16.70;99.90
6270;DHT22;3168;51.684;6.954;2022-07-11T01:58:54;16.70;99.90
6270;DHT22;3168;51.684;6.954;2022-07-11T02:01:20;16.70;99.90
6270;DHT22;3168;51.684;6.954;2022-07-11T02:03:46;16.70;99.90
6270;DHT22;3168;51.684;6.954;2022-07-11T02:06:11;16.70;99.90
6270;DHT22;3168;51.684;6.954;2022-07-11T02:08:37;16.70;99.90
6270;DHT22;3168;51.684;6.954;2022-07-11T02:11:03;16.70;99.90
6270;DHT22;3168;51.684;6.954;2022-07-11T02:13:29;16.70;99.90
6270;DHT22;3168;51.684;6.954;2022-07-11T02:15:55;16.70;99.90
6270;DHT22;3168;51.684;6.954;2022-07-11T02:18:22;16.70;99.90
6270;DHT22;3168;51.684;6.954;2022-07-11T02:20:48;16.70;99.90
6270;DHT22;3168;51.684;6.954;2022-07-11T02:23:15;16.70;99.90
6270;DHT22;3168;51.684;6.954;2022-07-11T02:25:40;16.70;99.30
6270;DHT22;3168;51.684;6.954;2022-07-11T02:28:06;16.70;99.00
6270;DHT22;3168;51.684;6.954;2022-07-11T02:30:32;16.70;99.20
6270;DHT22;3168;51.684;6.954;2022-07-11T02:32:58;16.80;99.60
6270;DHT22;3168;51.684;6.954;2022-07-11T02:35:24;16.60;99.10
6270;DHT22;3168;51.684;6.954;2022-07-11T02:37:50;16.60;99.20
6270;DHT22;3168;51.684;6.954;2022-07-11T02:40:16;16.60;98.70
6270;DHT22;3168;51.684;6.954;2022-07-11T02:42:42;16.60;98.70
6270;DHT22;3168;51.684;6.954;2022-07-11T02:45:08;16.60;99.00
6270;DHT22;3168;51.684;6.954;2022-07-11T02:47:36;16.60;98.60
6270;DHT22;3168;51.684;6.954;2022-07-11T02:50:01;16.60;98.30
6270;DHT22;3168;51.684;6.954;2022-07-11T02:52:27;16.70;98.10
6270;DHT22;3168;51.684;6.954;2022-07-11T02:54:53;16.60;98.30
6270;DHT22;3168;51.684;6.954;2022-07-11T02:57:19;16.70;97.90
6270;DHT22;3168;51.684;6.954;2022-07-11T02:59:44;16.60;97.60
6270;DHT22;3168;51.684;6.954;2022-07-11T03:02:11;16.60;97.20
6270;DHT22;3168;51.684;6.954;2022-07-11T03:04:37;16.60;97.20
6270;DHT22;3168;51.684;6.954;2022-07-11T03:07:03;16.60;97.40
6270;DHT22;3168;51.684;6.954;2022-07-11T03:09:29;16.60;97.80
6270;DHT22;3168;51.684;6.954;2022-07-11T03:11:55;16.60;97.50
6270;DHT22;3168;51.684;6.954;2022-07-11T03:14:21;16.60;97.30
6270;DHT22;3168;51.684;6.954;2022-07-11T03:16:47;16.50;98.00
6270;DHT22;3168;51.684;6.954;2022-07-11T03:19:13;16.50;98.10
6270;DHT22;3168;51.684;6.954;2022-07-11T03:21:39;16.50;97.70
6270;DHT22;3168;51.684;6.954;2022-07-11T03:24:05;16.50;97.40
6270;DHT22;3168;51.684;6.954;2022-07-11T03:26:31;16.40;98.20
6270;DHT22;3168;51.684;6.954;2022-07-11T03:28:57;16.40;98.40
6270;DHT22;3168;51.684;6.954;2022-07-11T03:31:22;16.40;98.10
6270;DHT22;3168;51.684;6.954;2022-07-11T03:33:48;16.40;98.50
6270;DHT22;3168;51.684;6.954;2022-07-11T03:36:14;16.40;98.30
6270;DHT22;3168;51.684;6.954;2022-07-11T03:38:40;16.40;98.50
6270;DHT22;3168;51.684;6.954;2022-07-11T03:41:06;16.50;98.20
6270;DHT22;3168;51.684;6.954;2022-07-11T03:43:32;16.40;97.70
6270;DHT22;3168;51.684;6.954;2022-07-11T03:45:58;16.40;97.70
6270;DHT22;3168;51.684;6.954;2022-07-11T03:48:24;16.50;97.60
6270;DHT22;3168;51.684;6.954;2022-07-11T03:50:50;16.40;97.70
6270;DHT22;3168;51.684;6.954;2022-07-11T03:53:16;16.40;98.40
6270;DHT22;3168;51.684;6.954;2022-07-11T03:55:42;16.40;98.30
6270;DHT22;3168;51.684;6.954;2022-07-11T03:58:08;16.40;98.20
6270;DHT22;3168;51.684;6.954;2022-07-11T04:00:34;16.40;98.40
6270;DHT22;3168;51.684;6.954;2022-07-11T04:02:59;16.40;97.80
6270;DHT22;3168;51.684;6.954;2022-07-11T04:05:25;16.30;98.00
6270;DHT22;3168;51.684;6.954;2022-07-11T04:07:51;16.40;98.00
6270;DHT22;3168;51.684;6.954;2022-07-11T04:10:17;16.40;97.20
6270;DHT22;3168;51.684;6.954;2022-07-11T04:12:43;16.40;96.90
6270;DHT22;3168;51.684;6.954;2022-07-11T04:15:10;16.40;96.30
6270;DHT22;3168;51.684;6.954;2022-07-11T04:17:35;16.40;95.70
6270;DHT22;3168;51.684;6.954;2022-07-11T04:20:02;16.40;96.30
6270;DHT22;3168;51.684;6.954;2022-07-11T04:22:28;16.40;94.60
6270;DHT22;3168;51.684;6.954;2022-07-11T04:24:54;16.40;94.40
6270;DHT22;3168;51.684;6.954;2022-07-11T04:27:20;16.40;94.10
6270;DHT22;3168;51.684;6.954;2022-07-11T04:29:46;16.40;92.50
6270;DHT22;3168;51.684;6.954;2022-07-11T04:32:12;16.40;92.50
6270;DHT22;3168;51.684;6.954;2022-07-11T04:34:38;16.50;92.00
6270;DHT22;3168;51.684;6.954;2022-07-11T04:37:04;16.40;91.30
6270;DHT22;3168;51.684;6.954;2022-07-11T04:39:30;16.40;91.20
6270;DHT22;3168;51.684;6.954;2022-07-11T04:41:56;16.50;91.60
6270;DHT22;3168;51.684;6.954;2022-07-11T04:44:22;16.50;91.60
6270;DHT22;3168;51.684;6.954;2022-07-11T04:46:48;16.50;91.20
6270;DHT22;3168;51.684;6.954;2022-07-11T04:49:14;16.50;91.60
6270;DHT22;3168;51.684;6.954;2022-07-11T04:51:39;16.50;91.50
6270;DHT22;3168;51.684;6.954;2022-07-11T04:54:05;16.50;91.00
6270;DHT22;3168;51.684;6.954;2022-07-11T04:56:31;16.50;89.80
6270;DHT22;3168;51.684;6.954;2022-07-11T04:58:57;16.50;90.00
6270;DHT22;3168;51.684;6.954;2022-07-11T05:01:23;16.60;90.00
6270;DHT22;3168;51.684;6.954;2022-07-11T05:03:49;16.50;90.00
6270;DHT22;3168;51.684;6.954;2022-07-11T05:06:14;16.60;90.70
6270;DHT22;3168;51.684;6.954;2022-07-11T05:08:40;16.60;88.50
6270;DHT22;3168;51.684;6.954;2022-07-11T05:11:06;16.60;88.40
6270;DHT22;3168;51.684;6.954;2022-07-11T05:13:32;16.50;87.20
6270;DHT22;3168;51.684;6.954;2022-07-11T05:15:58;16.60;88.90
6270;DHT22;3168;51.684;6.954;2022-07-11T05:18:24;16.60;87.80
6270;DHT22;3168;51.684;6.954;2022-07-11T05:20:50;16.60;88.10
6270;DHT22;3168;51.684;6.954;2022-07-11T05:23:15;16.60;88.40
6270;DHT22;3168;51.684;6.954;2022-07-11T05:25:42;16.70;88.10
6270;DHT22;3168;51.684;6.954;2022-07-11T05:28:08;16.70;88.10
6270;DHT22;3168;51.684;6.954;2022-07-11T05:30:34;16.70;89.70
6270;DHT22;3168;51.684;6.954;2022-07-11T05:33:00;16.80;90.20
6270;DHT22;3168;51.684;6.954;2022-07-11T05:35:26;16.70;89.30
6270;DHT22;3168;51.684;6.954;2022-07-11T05:37:51;16.70;91.70
6270;DHT22;3168;51.684;6.954;2022-07-11T05:40:18;16.70;92.90
6270;DHT22;3168;51.684;6.954;2022-07-11T05:42:44;16.70;92.90
6270;DHT22;3168;51.684;6.954;2022-07-11T05:45:11;16.70;94.20
6270;DHT22;3168;51.684;6.954;2022-07-11T05:47:37;16.70;94.20
6270;DHT22;3168;51.684;6.954;2022-07-11T05:50:03;16.80;94.10
6270;DHT22;3168;51.684;6.954;2022-07-11T05:52:29;16.80;94.40
6270;DHT22;3168;51.684;6.954;2022-07-11T05:54:55;16.80;94.50
6270;DHT22;3168;51.684;6.954;2022-07-11T05:57:21;16.90;94.70
6270;DHT22;3168;51.684;6.954;2022-07-11T05:59:47;16.80;95.60
6270;DHT22;3168;51.684;6.954;2022-07-11T06:02:14;16.60;98.20
6270;DHT22;3168;51.684;6.954;2022-07-11T06:04:39;16.60;98.20
6270;DHT22;3168;51.684;6.954;2022-07-11T06:07:05;16.50;99.10
6270;DHT22;3168;51.684;6.954;2022-07-11T06:09:31;16.50;99.90
6270;DHT22;3168;51.684;6.954;2022-07-11T06:11:57;16.40;99.90
6270;DHT22;3168;51.684;6.954;2022-07-11T06:14:23;16.40;99.90
6270;DHT22;3168;51.684;6.954;2022-07-11T06:16:49;16.30;99.90
6270;DHT22;3168;51.684;6.954;2022-07-11T06:19:15;16.30;99.90
6270;DHT22;3168;51.684;6.954;2022-07-11T06:21:40;16.30;99.90
6270;DHT22;3168;51.684;6.954;2022-07-11T06:24:06;16.40;99.90
6270;DHT22;3168;51.684;6.954;2022-07-11T06:26:32;16.40;99.90
6270;DHT22;3168;51.684;6.954;2022-07-11T06:28:58;16.50;99.90
6270;DHT22;3168;51.684;6.954;2022-07-11T06:31:24;16.60;99.90
6270;DHT22;3168;51.684;6.954;2022-07-11T06:33:50;16.70;99.90
6270;DHT22;3168;51.684;6.954;2022-07-11T06:36:16;16.90;99.90
6270;DHT22;3168;51.684;6.954;2022-07-11T06:38:41;16.90;99.90
6270;DHT22;3168;51.684;6.954;2022-07-11T06:41:07;17.00;99.90
6270;DHT22;3168;51.684;6.954;2022-07-11T06:43:33;17.00;99.90
6270;DHT22;3168;51.684;6.954;2022-07-11T06:45:59;16.90;99.90
6270;DHT22;3168;51.684;6.954;2022-07-11T06:48:25;16.90;99.90
6270;DHT22;3168;51.684;6.954;2022-07-11T06:50:51;16.90;99.90
6270;DHT22;3168;51.684;6.954;2022-07-11T06:53:17;16.90;99.30
6270;DHT22;3168;51.684;6.954;2022-07-11T06:55:43;16.80;99.90
6270;DHT22;3168;51.684;6.954;2022-07-11T06:58:08;16.70;97.80
6270;DHT22;3168;51.684;6.954;2022-07-11T07:00:34;16.70;98.50
6270;DHT22;3168;51.684;6.954;2022-07-11T07:03:00;16.70;96.70
6270;DHT22;3168;51.684;6.954;2022-07-11T07:05:26;16.80;96.80
6270;DHT22;3168;51.684;6.954;2022-07-11T07:07:52;16.80;96.40
6270;DHT22;3168;51.684;6.954;2022-07-11T07:10:18;17.00;95.00
6270;DHT22;3168;51.684;6.954;2022-07-11T07:12:44;17.00;93.30
6270;DHT22;3168;51.684;6.954;2022-07-11T07:15:10;17.00;92.90
6270;DHT22;3168;51.684;6.954;2022-07-11T07:17:36;17.00;93.70
6270;DHT22;3168;51.684;6.954;2022-07-11T07:20:02;17.10;93.20
6270;DHT22;3168;51.684;6.954;2022-07-11T07:22:28;17.10;93.00
6270;DHT22;3168;51.684;6.954;2022-07-11T07:24:54;16.90;95.00
6270;DHT22;3168;51.684;6.954;2022-07-11T07:27:20;16.60;99.90
6270;DHT22;3168;51.684;6.954;2022-07-11T07:29:45;16.50;99.90
6270;DHT22;3168;51.684;6.954;2022-07-11T07:32:11;16.50;99.90
6270;DHT22;3168;51.684;6.954;2022-07-11T07:34:38;16.40;99.90
6270;DHT22;3168;51.684;6.954;2022-07-11T07:37:04;16.40;99.90
6270;DHT22;3168;51.684;6.954;2022-07-11T07:39:30;16.50;99.90
6270;DHT22;3168;51.684;6.954;2022-07-11T07:41:55;16.60;99.90
6270;DHT22;3168;51.684;6.954;2022-07-11T07:44:22;16.90;99.90
6270;DHT22;3168;51.684;6.954;2022-07-11T07:46:48;16.90;99.90
6270;DHT22;3168;51.684;6.954;2022-07-11T07:49:14;17.00;99.90
6270;DHT22;3168;51.684;6.954;2022-07-11T07:51:40;17.20;99.90
6270;DHT22;3168;51.684;6.954;2022-07-11T07:54:06;17.30;98.30
6270;DHT22;3168;51.684;6.954;2022-07-11T07:56:31;17.30;97.60
6270;DHT22;3168;51.684;6.954;2022-07-11T07:58:57;17.10;98.10
6270;DHT22;3168;51.684;6.954;2022-07-11T08:01:24;17.20;99.30
6270;DHT22;3168;51.684;6.954;2022-07-11T08:03:57;17.10;99.30
6270;DHT22;3168;51.684;6.954;2022-07-11T08:06:22;17.20;97.90
6270;DHT22;3168;51.684;6.954;2022-07-11T08:08:48;17.30;96.20
6270;DHT22;3168;51.684;6.954;2022-07-11T08:11:14;17.40;93.90
6270;DHT22;3168;51.684;6.954;2022-07-11T08:13:40;17.50;93.40
6270;DHT22;3168;51.684;6.954;2022-07-11T08:16:07;17.70;90.50
6270;DHT22;3168;51.684;6.954;2022-07-11T08:18:33;17.70;86.70
6270;DHT22;3168;51.684;6.954;2022-07-11T08:20:58;17.90;86.30
6270;DHT22;3168;51.684;6.954;2022-07-11T08:23:24;18.00;89.90
6270;DHT22;3168;51.684;6.954;2022-07-11T08:25:50;18.20;85.00
6270;DHT22;3168;51.684;6.954;2022-07-11T08:28:17;18.40;79.70
6270;DHT22;3168;51.684;6.954;2022-07-11T08:30:43;18.40;80.30
6270;DHT22;3168;51.684;6.954;2022-07-11T08:33:08;18.00;70.10
6270;DHT22;3168;51.684;6.954;2022-07-11T08:35:34;17.80;77.30
6270;DHT22;3168;51.684;6.954;2022-07-11T08:38:00;17.90;77.50
6270;DHT22;3168;51.684;6.954;2022-07-11T08:40:26;17.90;75.80
6270;DHT22;3168;51.684;6.954;2022-07-11T08:42:52;17.90;76.80
6270;DHT22;3168;51.684;6.954;2022-07-11T08:45:18;17.70;78.60
6270;DHT22;3168;51.684;6.954;2022-07-11T08:47:44;17.70;82.50
6270;DHT22;3168;51.684;6.954;2022-07-11T08:50:11;17.70;85.30
6270;DHT22;3168;51.684;6.954;2022-07-11T08:52:37;17.80;81.70
6270;DHT22;3168;51.684;6.954;2022-07-11T08:55:03;17.80;81.50
6270;DHT22;3168;51.684;6.954;2022-07-11T08:57:29;17.90;78.00
6270;DHT22;3168;51.684;6.954;2022-07-11T08:59:55;18.10;77.60
6270;DHT22;3168;51.684;6.954;2022-07-11T09:02:21;18.30;67.70
6270;DHT22;3168;51.684;6.954;2022-07-11T09:04:47;18.70;65.50
6270;DHT22;3168;51.684;6.954;2022-07-11T09:07:14;18.20;56.00
6270;DHT22;3168;51.684;6.954;2022-07-11T09:09:40;18.20;56.10
6270;DHT22;3168;51.684;6.954;2022-07-11T09:12:11;18.10;63.80
6270;DHT22;3168;51.684;6.954;2022-07-11T09:14:36;18.10;63.80
6270;DHT22;3168;51.684;6.954;2022-07-11T09:17:03;18.20;63.90
6270;DHT22;3168;51.684;6.954;2022-07-11T09:19:29;18.10;59.90
6270;DHT22;3168;51.684;6.954;2022-07-11T09:22:00;18.30;57.80
6270;DHT22;3168;51.684;6.954;2022-07-11T09:24:35;18.50;53.90
6270;DHT22;3168;51.684;6.954;2022-07-11T09:27:03;18.50;50.50
6270;DHT22;3168;51.684;6.954;2022-07-11T09:29:28;18.60;52.20
6270;DHT22;3168;51.684;6.954;2022-07-11T09:31:54;18.70;51.60
6270;DHT22;3168;51.684;6.954;2022-07-11T09:34:21;18.80;47.90
6270;DHT22;3168;51.684;6.954;2022-07-11T09:36:49;18.90;45.90
6270;DHT22;3168;51.684;6.954;2022-07-11T09:39:15;18.90;44.50
6270;DHT22;3168;51.684;6.954;2022-07-11T09:41:40;18.80;38.00
6270;DHT22;3168;51.684;6.954;2022-07-11T09:44:12;18.70;41.10
6270;DHT22;3168;51.684;6.954;2022-07-11T09:46:36;18.60;45.60
6270;DHT22;3168;51.684;6.954;2022-07-11T09:49:02;18.60;45.60
6270;DHT22;3168;51.684;6.954;2022-07-11T09:51:28;18.70;49.30
6270;DHT22;3168;51.684;6.954;2022-07-11T09:53:54;18.70;51.90
6270;DHT22;3168;51.684;6.954;2022-07-11T09:56:23;18.70;51.30
6270;DHT22;3168;51.684;6.954;2022-07-11T09:58:46;18.80;49.50
6270;DHT22;3168;51.684;6.954;2022-07-11T10:01:11;18.80;50.00
6270;DHT22;3168;51.684;6.954;2022-07-11T10:03:37;18.90;48.50
6270;DHT22;3168;51.684;6.954;2022-07-11T10:06:03;18.80;45.80
6270;DHT22;3168;51.684;6.954;2022-07-11T10:08:29;18.70;49.10
6270;DHT22;3168;51.684;6.954;2022-07-11T10:10:55;18.80;53.50
6270;DHT22;3168;51.684;6.954;2022-07-11T10:13:22;18.70;56.40
6270;DHT22;3168;51.684;6.954;2022-07-11T10:15:48;18.70;56.30
6270;DHT22;3168;51.684;6.954;2022-07-11T10:18:18;18.70;55.00
6270;DHT22;3168;51.684;6.954;2022-07-11T10:20:49;18.80;53.60
6270;DHT22;3168;51.684;6.954;2022-07-11T10:23:33;18.70;55.00
6270;DHT22;3168;51.684;6.954;2022-07-11T10:26:17;18.80;53.80
6270;DHT22;3168;51.684;6.954;2022-07-11T10:28:45;18.80;53.70
6270;DHT22;3168;51.684;6.954;2022-07-11T10:31:18;18.80;54.20
6270;DHT22;3168;51.684;6.954;2022-07-11T10:33:58;18.80;54.00
6270;DHT22;3168;51.684;6.954;2022-07-11T10:36:09;18.80;53.20
6270;DHT22;3168;51.684;6.954;2022-07-11T10:38:35;18.70;55.40
6270;DHT22;3168;51.684;6.954;2022-07-11T10:41:01;18.70;54.20
6270;DHT22;3168;51.684;6.954;2022-07-11T10:43:34;18.60;53.20
6270;DHT22;3168;51.684;6.954;2022-07-11T10:46:01;18.70;53.80
6270;DHT22;3168;51.684;6.954;2022-07-11T10:48:26;18.70;55.00
6270;DHT22;3168;51.684;6.954;2022-07-11T10:51:01;18.80;51.40
6270;DHT22;3168;51.684;6.954;2022-07-11T10:53:21;18.80;53.40
6270;DHT22;3168;51.684;6.954;2022-07-11T10:56:21;18.80;51.40
6270;DHT22;3168;51.684;6.954;2022-07-11T10:58:29;18.90;50.00
6270;DHT22;3168;51.684;6.954;2022-07-11T11:03:32;19.10;42.00
6270;DHT22;3168;51.684;6.954;2022-07-11T11:05:58;19.00;41.20
6270;DHT22;3168;51.684;6.954;2022-07-11T11:08:43;18.90;45.00
6270;DHT22;3168;51.684;6.954;2022-07-11T11:16:34;19.30;39.80
6270;DHT22;3168;51.684;6.954;2022-07-11T11:19:00;19.50;38.80
6270;DHT22;3168;51.684;6.954;2022-07-11T11:21:26;19.60;36.90
6270;DHT22;3168;51.684;6.954;2022-07-11T11:24:02;19.70;32.50
6270;DHT22;3168;51.684;6.954;2022-07-11T11:29:06;19.50;33.20
6270;DHT22;3168;51.684;6.954;2022-07-11T11:31:32;19.20;35.30
6270;DHT22;3168;51.684;6.954;2022-07-11T11:33:58;19.20;40.50
6270;DHT22;3168;51.684;6.954;2022-07-11T11:36:24;19.30;43.90
6270;DHT22;3168;51.684;6.954;2022-07-11T11:38:49;19.20;39.30
6270;DHT22;3168;51.684;6.954;2022-07-11T11:41:21;19.10;41.90
6270;DHT22;3168;51.684;6.954;2022-07-11T11:43:46;19.30;36.60
6270;DHT22;3168;51.684;6.954;2022-07-11T11:46:13;19.30;38.80
6270;DHT22;3168;51.684;6.954;2022-07-11T11:48:39;19.30;38.90
6270;DHT22;3168;51.684;6.954;2022-07-11T11:51:06;19.70;34.50
6270;DHT22;3168;51.684;6.954;2022-07-11T11:53:35;20.10;28.00
6270;DHT22;3168;51.684;6.954;2022-07-11T11:56:01;20.00;26.00
6270;DHT22;3168;51.684;6.954;2022-07-11T11:58:27;19.90;26.40
6270;DHT22;3168;51.684;6.954;2022-07-11T12:00:54;19.80;29.10
6270;DHT22;3168;51.684;6.954;2022-07-11T12:03:19;19.80;30.00
6270;DHT22;3168;51.684;6.954;2022-07-11T12:05:54;19.80;33.50
6270;DHT22;3168;51.684;6.954;2022-07-11T12:08:25;19.80;30.70
6270;DHT22;3168;51.684;6.954;2022-07-11T12:10:53;19.90;32.30
6270;DHT22;3168;51.684;6.954;2022-07-11T12:13:18;19.70;31.60
6270;DHT22;3168;51.684;6.954;2022-07-11T12:15:44;19.60;36.80
6270;DHT22;3168;51.684;6.954;2022-07-11T12:18:16;19.60;36.00
6270;DHT22;3168;51.684;6.954;2022-07-11T12:20:42;19.70;33.50
6270;DHT22;3168;51.684;6.954;2022-07-11T12:23:09;19.90;30.00
6270;DHT22;3168;51.684;6.954;2022-07-11T12:25:34;19.90;29.90
6270;DHT22;3168;51.684;6.954;2022-07-11T12:27:59;20.10;29.90
6270;DHT22;3168;51.684;6.954;2022-07-11T12:30:25;20.20;27.80
6270;DHT22;3168;51.684;6.954;2022-07-11T12:33:02;19.90;24.40
6270;DHT22;3168;51.684;6.954;2022-07-11T12:35:27;19.80;25.60
6270;DHT22;3168;51.684;6.954;2022-07-11T12:37:54;20.00;25.40
6270;DHT22;3168;51.684;6.954;2022-07-11T12:40:20;20.00;25.40
6270;DHT22;3168;51.684;6.954;2022-07-11T12:42:46;20.10;24.40
6270;DHT22;3168;51.684;6.954;2022-07-11T12:45:12;20.20;25.40
6270;DHT22;3168;51.684;6.954;2022-07-11T12:47:39;20.10;26.10
6270;DHT22;3168;51.684;6.954;2022-07-11T12:50:16;20.10;26.40
6270;DHT22;3168;51.684;6.954;2022-07-11T12:52:42;19.90;26.80
6270;DHT22;3168;51.684;6.954;2022-07-11T12:55:08;20.00;27.90
6270;DHT22;3168;51.684;6.954;2022-07-11T12:57:34;20.00;27.80
6270;DHT22;3168;51.684;6.954;2022-07-11T13:00:12;20.00;28.00
6270;DHT22;3168;51.684;6.954;2022-07-11T13:02:37;20.00;28.60
6270;DHT22;3168;51.684;6.954;2022-07-11T13:05:03;19.90;27.90
6270;DHT22;3168;51.684;6.954;2022-07-11T13:07:32;19.80;30.60
6270;DHT22;3168;51.684;6.954;2022-07-11T13:10:04;19.90;32.90
6270;DHT22;3168;51.684;6.954;2022-07-11T13:12:30;19.90;32.50
6270;DHT22;3168;51.684;6.954;2022-07-11T13:14:57;20.00;30.50
6270;DHT22;3168;51.684;6.954;2022-07-11T13:17:28;20.00;29.70
6270;DHT22;3168;51.684;6.954;2022-07-11T13:19:54;20.10;28.60
6270;DHT22;3168;51.684;6.954;2022-07-11T13:22:20;20.20;26.30
6270;DHT22;3168;51.684;6.954;2022-07-11T13:24:49;20.30;25.20
6270;DHT22;3168;51.684;6.954;2022-07-11T13:27:12;20.30;28.70
6270;DHT22;3168;51.684;6.954;2022-07-11T13:29:38;20.50;25.60
6270;DHT22;3168;51.684;6.954;2022-07-11T13:32:04;20.50;25.20
6270;DHT22;3168;51.684;6.954;2022-07-11T13:34:30;20.60;21.50
6270;DHT22;3168;51.684;6.954;2022-07-11T13:36:56;20.70;20.60
6270;DHT22;3168;51.684;6.954;2022-07-11T13:39:22;20.50;20.50
6270;DHT22;3168;51.684;6.954;2022-07-11T13:41:48;20.50;20.50
6270;DHT22;3168;51.684;6.954;2022-07-11T13:44:14;20.40;22.40
6270;DHT22;3168;51.684;6.954;2022-07-11T13:46:40;20.30;26.50
6270;DHT22;3168;51.684;6.954;2022-07-11T13:49:06;20.40;26.20
6270;DHT22;3168;51.684;6.954;2022-07-11T13:51:32;20.70;18.70
6270;DHT22;3168;51.684;6.954;2022-07-11T13:53:57;20.70;18.30
6270;DHT22;3168;51.684;6.954;2022-07-11T13:56:24;20.70;15.90
6270;DHT22;3168;51.684;6.954;2022-07-11T13:58:50;20.80;16.10
6270;DHT22;3168;51.684;6.954;2022-07-11T14:01:16;20.60;20.50
6270;DHT22;3168;51.684;6.954;2022-07-11T14:03:42;21.00;15.80
6270;DHT22;3168;51.684;6.954;2022-07-11T14:06:08;21.00;15.80
6270;DHT22;3168;51.684;6.954;2022-07-11T14:08:34;21.20;12.70
6270;DHT22;3168;51.684;6.954;2022-07-11T14:11:00;21.60;9.40
6270;DHT22;3168;51.684;6.954;2022-07-11T14:13:26;21.70;4.70
6270;DHT22;3168;51.684;6.954;2022-07-11T14:15:52;21.40;5.50
6270;DHT22;3168;51.684;6.954;2022-07-11T14:18:17;21.60;4.70
6270;DHT22;3168;51.684;6.954;2022-07-11T14:20:43;21.80;4.60
6270;DHT22;3168;51.684;6.954;2022-07-11T14:23:09;22.30;1.00
6270;DHT22;3168;51.684;6.954;2022-07-11T14:25:35;22.60;1.00
6270;DHT22;3168;51.684;6.954;2022-07-11T14:28:01;22.70;1.00
6270;DHT22;3168;51.684;6.954;2022-07-11T14:30:27;22.90;1.00
6270;DHT22;3168;51.684;6.954;2022-07-11T14:32:53;22.80;1.00
6270;DHT22;3168;51.684;6.954;2022-07-11T14:35:18;22.70;1.00
6270;DHT22;3168;51.684;6.954;2022-07-11T14:37:44;22.40;1.00
6270;DHT22;3168;51.684;6.954;2022-07-11T14:40:10;22.10;1.00
6270;DHT22;3168;51.684;6.954;2022-07-11T14:42:36;21.70;1.00
6270;DHT22;3168;51.684;6.954;2022-07-11T14:45:03;21.60;3.20
6270;DHT22;3168;51.684;6.954;2022-07-11T14:47:29;21.90;4.20
6270;DHT22;3168;51.684;6.954;2022-07-11T14:49:54;22.00;1.00
6270;DHT22;3168;51.684;6.954;2022-07-11T14:52:20;22.00;1.00
6270;DHT22;3168;51.684;6.954;2022-07-11T14:54:46;22.20;1.00
6270;DHT22;3168;51.684;6.954;2022-07-11T14:57:12;22.30;1.00
6270;DHT22;3168;51.684;6.954;2022-07-11T14:59:38;22.90;1.00
6270;DHT22;3168;51.684;6.954;2022-07-11T15:02:04;22.80;1.00
6270;DHT22;3168;51.684;6.954;2022-07-11T15:04:30;22.50;1.00
6270;DHT22;3168;51.684;6.954;2022-07-11T15:06:55;22.50;1.00
6270;DHT22;3168;51.684;6.954;2022-07-11T15:09:27;22.30;1.00
6270;DHT22;3168;51.684;6.954;2022-07-11T15:11:59;22.40;1.00
6270;DHT22;3168;51.684;6.954;2022-07-11T15:14:31;22.70;1.00
6270;DHT22;3168;51.684;6.954;2022-07-11T15:16:57;22.10;1.00
6270;DHT22;3168;51.684;6.954;2022-07-11T15:19:22;21.70;1.00
6270;DHT22;3168;51.684;6.954;2022-07-11T15:21:48;21.70;1.00
6270;DHT22;3168;51.684;6.954;2022-07-11T15:24:14;21.80;1.00
6270;DHT22;3168;51.684;6.954;2022-07-11T15:26:40;21.90;1.00
6270;DHT22;3168;51.684;6.954;2022-07-11T15:29:06;21.90;1.00
6270;DHT22;3168;51.684;6.954;2022-07-11T15:31:32;21.70;1.00
6270;DHT22;3168;51.684;6.954;2022-07-11T15:33:57;21.80;1.00
6270;DHT22;3168;51.684;6.954;2022-07-11T15:36:23;21.90;1.00
6270;DHT22;3168;51.684;6.954;2022-07-11T15:38:49;21.80;1.00
6270;DHT22;3168;51.684;6.954;2022-07-11T15:41:15;22.00;1.00
6270;DHT22;3168;51.684;6.954;2022-07-11T15:43:41;22.10;1.00
6270;DHT22;3168;51.684;6.954;2022-07-11T15:46:07;22.00;1.00
6270;DHT22;3168;51.684;6.954;2022-07-11T15:48:33;22.20;1.00
6270;DHT22;3168;51.684;6.954;2022-07-11T15:50:58;22.20;1.00
6270;DHT22;3168;51.684;6.954;2022-07-11T15:53:24;22.30;1.00
6270;DHT22;3168;51.684;6.954;2022-07-11T15:55:50;22.30;1.00
6270;DHT22;3168;51.684;6.954;2022-07-11T15:58:16;22.30;1.00
6270;DHT22;3168;51.684;6.954;2022-07-11T16:00:42;22.30;1.00
6270;DHT22;3168;51.684;6.954;2022-07-11T16:03:08;22.30;1.00
6270;DHT22;3168;51.684;6.954;2022-07-11T16:05:34;22.30;1.00
6270;DHT22;3168;51.684;6.954;2022-07-11T16:07:59;22.40;1.00
6270;DHT22;3168;51.684;6.954;2022-07-11T16:10:25;22.40;1.00